This is the latest recevied weather packets stored in our database for station/object KC8UZG. If no packets are shown the sender has not sent any weather packets the latest 10 day(s).
| Time | Temp. | Humidity | Pressure | Rain* | Wind** | Luminosity | Snow |
|---|---|---|---|---|---|---|---|
| 1777161334 | 20° C | 69% | 1011.5 hPa | 0 mm | - | 9 W/m² | - |
| 1777160739 | 20.56° C | 68% | 1011.5 hPa | 0 mm | - | 22 W/m² | - |
| 1777160118 | 20.56° C | 67% | 1011.6 hPa | 0 mm | - | 25 W/m² | - |
| 1777159525 | 21.11° C | 67% | 1011.5 hPa | 0 mm | - | 65 W/m² | - |
| 1777158930 | 21.11° C | 69% | 1011.5 hPa | 0 mm | - | 68 W/m² | - |
| 1777158336 | 21.67° C | 67% | 1011.3 hPa | 0 mm | - | 131 W/m² | - |
| 1777157715 | 21.11° C | 68% | 1011.2 hPa | 0 mm | - | 149 W/m² | - |
| 1777157121 | 21.67° C | 67% | 1011.3 hPa | 0 mm | - | 80 W/m² | - |
| 1777156527 | 21.67° C | 68% | 1011.2 hPa | 0 mm | - | 85 W/m² | - |
| 1777155933 | 22.22° C | 66% | 1011.1 hPa | 0 mm | - | 126 W/m² | - |
| 1777155339 | 22.22° C | 67% | 1011.1 hPa | 0 mm | - | 187 W/m² | - |
| 1777154718 | 21.67° C | 67% | 1011.1 hPa | 0 mm | - | 145 W/m² | - |
| 1777154124 | 22.22° C | 66% | 1010.8 hPa | 0 mm | - | 72 W/m² | - |
| 1777153530 | 23.33° C | 63% | 1010.8 hPa | 0 mm | - | 119 W/m² | - |
| 1777152936 | 22.78° C | 64% | 1010.8 hPa | 0 mm | - | 301 W/m² | - |
| 1777152315 | 21.67° C | 66% | 1010.8 hPa | 0 mm | - | 273 W/m² | - |
| 1777151721 | 21.67° C | 67% | 1010.8 hPa | 0 mm | - | 59 W/m² | - |
| 1777151127 | 22.22° C | 67% | 1010.8 hPa | 0 mm | - | 227 W/m² | - |
| 1777150533 | 22.78° C | 65% | 1010.8 hPa | 0 mm | - | 312 W/m² | - |
| 1777149939 | 22.22° C | 65% | 1010.8 hPa | 0 mm | - | 190 W/m² | - |
| 1777149318 | 22.78° C | 64% | 1010.8 hPa | 0 mm | - | 412 W/m² | - |
| 1777148724 | 22.22° C | 66% | 1010.8 hPa | 0 mm | - | 358 W/m² | - |
| 1777148130 | 22.22° C | 65% | - | 0 mm | - | 214 W/m² | - |
| 1777147536 | 21.11° C | 71% | - | 0 mm | - | 101 W/m² | - |
| 1777146942 | 22.78° C | 66% | - | 0 mm | - | 227 W/m² | - |
* Rain latest hour (hover to see other rain measurements)
** Current wind speed in m/s (hover to see current wind gust speed)